sensor_id;sensor_type;location;lat;lon;timestamp;P1;durP1;ratioP1;P2;durP2;ratioP2
1106;SDS011;540;49.448;8.612;2022-07-22T00:01:37;9.70;;;6.05;;
1106;SDS011;540;49.448;8.612;2022-07-22T00:04:05;7.38;;;6.07;;
1106;SDS011;540;49.448;8.612;2022-07-22T00:06:33;11.50;;;6.00;;
1106;SDS011;540;49.448;8.612;2022-07-22T00:09:02;8.32;;;6.38;;
1106;SDS011;540;49.448;8.612;2022-07-22T00:11:30;10.02;;;6.65;;
1106;SDS011;540;49.448;8.612;2022-07-22T00:13:58;8.40;;;5.70;;
1106;SDS011;540;49.448;8.612;2022-07-22T00:16:26;7.63;;;6.15;;
1106;SDS011;540;49.448;8.612;2022-07-22T00:18:54;8.40;;;5.97;;
1106;SDS011;540;49.448;8.612;2022-07-22T00:21:23;8.07;;;6.03;;
1106;SDS011;540;49.448;8.612;2022-07-22T00:23:50;7.82;;;6.60;;
1106;SDS011;540;49.448;8.612;2022-07-22T00:26:20;6.68;;;5.97;;
1106;SDS011;540;49.448;8.612;2022-07-22T00:28:47;10.68;;;6.10;;
1106;SDS011;540;49.448;8.612;2022-07-22T00:31:15;8.25;;;6.03;;
1106;SDS011;540;49.448;8.612;2022-07-22T00:33:43;7.25;;;5.80;;
1106;SDS011;540;49.448;8.612;2022-07-22T00:36:11;10.13;;;6.20;;
1106;SDS011;540;49.448;8.612;2022-07-22T00:38:39;8.13;;;6.20;;
1106;SDS011;540;49.448;8.612;2022-07-22T00:41:07;8.20;;;6.40;;
1106;SDS011;540;49.448;8.612;2022-07-22T00:43:53;11.20;;;6.35;;
1106;SDS011;540;49.448;8.612;2022-07-22T00:46:24;10.45;;;6.20;;
1106;SDS011;540;49.448;8.612;2022-07-22T00:48:53;7.72;;;5.85;;
1106;SDS011;540;49.448;8.612;2022-07-22T00:51:23;8.30;;;5.85;;
1106;SDS011;540;49.448;8.612;2022-07-22T00:53:53;8.52;;;6.25;;
1106;SDS011;540;49.448;8.612;2022-07-22T00:56:22;8.10;;;5.70;;
1106;SDS011;540;49.448;8.612;2022-07-22T00:58:53;8.18;;;5.88;;
1106;SDS011;540;49.448;8.612;2022-07-22T01:01:23;9.40;;;6.38;;
1106;SDS011;540;49.448;8.612;2022-07-22T01:03:51;6.93;;;5.82;;
1106;SDS011;540;49.448;8.612;2022-07-22T01:06:26;8.02;;;5.85;;
1106;SDS011;540;49.448;8.612;2022-07-22T01:08:54;8.02;;;6.25;;
1106;SDS011;540;49.448;8.612;2022-07-22T01:11:23;8.05;;;5.35;;
1106;SDS011;540;49.448;8.612;2022-07-22T01:13:53;8.00;;;6.28;;
1106;SDS011;540;49.448;8.612;2022-07-22T01:16:22;9.35;;;6.07;;
1106;SDS011;540;49.448;8.612;2022-07-22T01:18:51;9.70;;;6.55;;
1106;SDS011;540;49.448;8.612;2022-07-22T01:21:21;7.82;;;6.18;;
1106;SDS011;540;49.448;8.612;2022-07-22T01:23:49;9.07;;;6.28;;
1106;SDS011;540;49.448;8.612;2022-07-22T01:26:17;7.45;;;6.15;;
1106;SDS011;540;49.448;8.612;2022-07-22T01:28:45;9.15;;;5.90;;
1106;SDS011;540;49.448;8.612;2022-07-22T01:31:13;6.88;;;5.47;;
1106;SDS011;540;49.448;8.612;2022-07-22T01:33:41;8.80;;;6.20;;
1106;SDS011;540;49.448;8.612;2022-07-22T01:36:09;7.75;;;6.20;;
1106;SDS011;540;49.448;8.612;2022-07-22T01:38:38;7.53;;;6.07;;
1106;SDS011;540;49.448;8.612;2022-07-22T01:41:06;9.23;;;6.43;;
1106;SDS011;540;49.448;8.612;2022-07-22T01:43:34;9.85;;;6.80;;
1106;SDS011;540;49.448;8.612;2022-07-22T01:46:02;10.88;;;6.47;;
1106;SDS011;540;49.448;8.612;2022-07-22T01:48:32;8.98;;;7.25;;
1106;SDS011;540;49.448;8.612;2022-07-22T01:51:00;7.90;;;6.43;;
1106;SDS011;540;49.448;8.612;2022-07-22T01:53:28;7.20;;;5.97;;
1106;SDS011;540;49.448;8.612;2022-07-22T01:55:57;7.85;;;6.55;;
1106;SDS011;540;49.448;8.612;2022-07-22T01:58:25;9.27;;;6.07;;
1106;SDS011;540;49.448;8.612;2022-07-22T02:00:53;8.70;;;6.03;;
1106;SDS011;540;49.448;8.612;2022-07-22T02:03:21;9.82;;;6.65;;
1106;SDS011;540;49.448;8.612;2022-07-22T02:05:48;6.97;;;5.93;;
1106;SDS011;540;49.448;8.612;2022-07-22T02:08:16;8.35;;;6.50;;
1106;SDS011;540;49.448;8.612;2022-07-22T02:10:44;9.80;;;6.93;;
1106;SDS011;540;49.448;8.612;2022-07-22T02:13:13;8.27;;;6.88;;
1106;SDS011;540;49.448;8.612;2022-07-22T02:15:41;9.13;;;7.15;;
1106;SDS011;540;49.448;8.612;2022-07-22T02:18:10;9.93;;;6.57;;
1106;SDS011;540;49.448;8.612;2022-07-22T02:20:38;6.85;;;6.07;;
1106;SDS011;540;49.448;8.612;2022-07-22T02:23:06;11.02;;;6.60;;
1106;SDS011;540;49.448;8.612;2022-07-22T02:25:34;9.07;;;6.50;;
1106;SDS011;540;49.448;8.612;2022-07-22T02:28:02;9.20;;;6.85;;
1106;SDS011;540;49.448;8.612;2022-07-22T02:30:32;12.10;;;7.13;;
1106;SDS011;540;49.448;8.612;2022-07-22T02:33:00;12.45;;;7.22;;
1106;SDS011;540;49.448;8.612;2022-07-22T02:35:28;8.30;;;7.07;;
1106;SDS011;540;49.448;8.612;2022-07-22T02:37:56;9.90;;;6.97;;
1106;SDS011;540;49.448;8.612;2022-07-22T02:40:24;9.75;;;6.90;;
1106;SDS011;540;49.448;8.612;2022-07-22T02:42:52;12.68;;;7.47;;
1106;SDS011;540;49.448;8.612;2022-07-22T02:45:20;11.80;;;7.40;;
1106;SDS011;540;49.448;8.612;2022-07-22T02:47:50;9.18;;;6.70;;
1106;SDS011;540;49.448;8.612;2022-07-22T02:50:19;9.52;;;7.22;;
1106;SDS011;540;49.448;8.612;2022-07-22T02:52:48;10.63;;;7.25;;
1106;SDS011;540;49.448;8.612;2022-07-22T02:55:16;10.98;;;7.70;;
1106;SDS011;540;49.448;8.612;2022-07-22T02:57:44;11.75;;;7.07;;
1106;SDS011;540;49.448;8.612;2022-07-22T03:00:12;8.90;;;7.20;;
1106;SDS011;540;49.448;8.612;2022-07-22T03:02:40;10.90;;;7.97;;
1106;SDS011;540;49.448;8.612;2022-07-22T03:05:10;10.02;;;7.90;;
1106;SDS011;540;49.448;8.612;2022-07-22T03:07:38;9.85;;;7.25;;
1106;SDS011;540;49.448;8.612;2022-07-22T03:10:06;11.90;;;7.15;;
1106;SDS011;540;49.448;8.612;2022-07-22T03:12:35;10.23;;;7.07;;
1106;SDS011;540;49.448;8.612;2022-07-22T03:15:03;9.40;;;7.85;;
1106;SDS011;540;49.448;8.612;2022-07-22T03:17:33;9.85;;;7.88;;
1106;SDS011;540;49.448;8.612;2022-07-22T03:20:01;9.43;;;7.13;;
1106;SDS011;540;49.448;8.612;2022-07-22T03:22:31;9.90;;;6.97;;
1106;SDS011;540;49.448;8.612;2022-07-22T03:24:59;10.80;;;7.68;;
1106;SDS011;540;49.448;8.612;2022-07-22T03:27:27;10.75;;;8.05;;
1106;SDS011;540;49.448;8.612;2022-07-22T03:29:54;11.95;;;7.80;;
1106;SDS011;540;49.448;8.612;2022-07-22T03:32:22;11.50;;;8.40;;
1106;SDS011;540;49.448;8.612;2022-07-22T03:34:50;11.45;;;7.72;;
1106;SDS011;540;49.448;8.612;2022-07-22T03:37:18;9.40;;;7.85;;
1106;SDS011;540;49.448;8.612;2022-07-22T03:39:47;9.98;;;7.97;;
1106;SDS011;540;49.448;8.612;2022-07-22T03:42:15;11.88;;;8.38;;
1106;SDS011;540;49.448;8.612;2022-07-22T03:44:43;10.60;;;8.40;;
1106;SDS011;540;49.448;8.612;2022-07-22T03:47:16;13.82;;;7.80;;
1106;SDS011;540;49.448;8.612;2022-07-22T03:49:45;11.88;;;8.20;;
1106;SDS011;540;49.448;8.612;2022-07-22T03:52:13;13.30;;;8.98;;
1106;SDS011;540;49.448;8.612;2022-07-22T03:54:40;9.35;;;7.50;;
1106;SDS011;540;49.448;8.612;2022-07-22T03:57:10;11.00;;;7.50;;
1106;SDS011;540;49.448;8.612;2022-07-22T03:59:38;12.70;;;8.73;;
1106;SDS011;540;49.448;8.612;2022-07-22T04:02:06;10.18;;;7.85;;
1106;SDS011;540;49.448;8.612;2022-07-22T04:04:34;13.15;;;8.25;;
1106;SDS011;540;49.448;8.612;2022-07-22T04:07:01;10.90;;;8.02;;
1106;SDS011;540;49.448;8.612;2022-07-22T04:09:30;10.85;;;7.65;;
1106;SDS011;540;49.448;8.612;2022-07-22T04:11:57;18.80;;;14.57;;
1106;SDS011;540;49.448;8.612;2022-07-22T04:14:27;12.27;;;7.97;;
1106;SDS011;540;49.448;8.612;2022-07-22T04:16:54;9.15;;;7.38;;
1106;SDS011;540;49.448;8.612;2022-07-22T04:19:22;10.60;;;7.95;;
1106;SDS011;540;49.448;8.612;2022-07-22T04:21:50;10.25;;;7.80;;
1106;SDS011;540;49.448;8.612;2022-07-22T04:24:18;11.15;;;7.28;;
1106;SDS011;540;49.448;8.612;2022-07-22T04:26:46;12.95;;;7.75;;
1106;SDS011;540;49.448;8.612;2022-07-22T04:29:14;10.25;;;7.18;;
1106;SDS011;540;49.448;8.612;2022-07-22T04:31:43;12.82;;;8.50;;
1106;SDS011;540;49.448;8.612;2022-07-22T04:34:11;12.40;;;7.25;;
1106;SDS011;540;49.448;8.612;2022-07-22T04:36:39;11.88;;;7.95;;
1106;SDS011;540;49.448;8.612;2022-07-22T04:39:06;12.23;;;8.00;;
1106;SDS011;540;49.448;8.612;2022-07-22T04:41:34;9.85;;;7.88;;
1106;SDS011;540;49.448;8.612;2022-07-22T04:44:02;10.90;;;7.80;;
1106;SDS011;540;49.448;8.612;2022-07-22T04:46:30;12.57;;;7.85;;
1106;SDS011;540;49.448;8.612;2022-07-22T04:48:59;9.45;;;7.40;;
1106;SDS011;540;49.448;8.612;2022-07-22T04:51:27;16.70;;;9.52;;
1106;SDS011;540;49.448;8.612;2022-07-22T04:53:55;10.27;;;7.88;;
1106;SDS011;540;49.448;8.612;2022-07-22T04:56:23;13.02;;;8.40;;
1106;SDS011;540;49.448;8.612;2022-07-22T04:58:51;11.68;;;8.32;;
1106;SDS011;540;49.448;8.612;2022-07-22T05:01:20;12.75;;;9.38;;
1106;SDS011;540;49.448;8.612;2022-07-22T05:03:48;12.68;;;8.35;;
1106;SDS011;540;49.448;8.612;2022-07-22T05:06:18;13.82;;;7.78;;
1106;SDS011;540;49.448;8.612;2022-07-22T05:08:46;17.40;;;9.18;;
1106;SDS011;540;49.448;8.612;2022-07-22T05:11:14;11.20;;;8.10;;
1106;SDS011;540;49.448;8.612;2022-07-22T05:13:41;9.38;;;7.57;;
1106;SDS011;540;49.448;8.612;2022-07-22T05:16:09;12.57;;;8.65;;
1106;SDS011;540;49.448;8.612;2022-07-22T05:18:37;9.77;;;8.35;;
1106;SDS011;540;49.448;8.612;2022-07-22T05:21:05;12.45;;;8.40;;
1106;SDS011;540;49.448;8.612;2022-07-22T05:23:34;9.50;;;7.85;;
1106;SDS011;540;49.448;8.612;2022-07-22T05:26:03;11.82;;;8.63;;
1106;SDS011;540;49.448;8.612;2022-07-22T05:28:32;9.00;;;7.85;;
1106;SDS011;540;49.448;8.612;2022-07-22T05:30:59;13.52;;;8.23;;
1106;SDS011;540;49.448;8.612;2022-07-22T05:33:27;11.85;;;7.75;;
1106;SDS011;540;49.448;8.612;2022-07-22T05:35:55;13.70;;;8.23;;
1106;SDS011;540;49.448;8.612;2022-07-22T05:38:24;16.20;;;8.50;;
1106;SDS011;540;49.448;8.612;2022-07-22T05:40:53;11.57;;;8.55;;
1106;SDS011;540;49.448;8.612;2022-07-22T05:43:21;14.38;;;8.55;;
1106;SDS011;540;49.448;8.612;2022-07-22T05:45:48;10.27;;;8.00;;
1106;SDS011;540;49.448;8.612;2022-07-22T05:48:16;11.70;;;7.72;;
1106;SDS011;540;49.448;8.612;2022-07-22T05:50:44;10.55;;;8.40;;
1106;SDS011;540;49.448;8.612;2022-07-22T05:53:14;11.93;;;8.70;;
1106;SDS011;540;49.448;8.612;2022-07-22T05:55:42;10.60;;;7.35;;
1106;SDS011;540;49.448;8.612;2022-07-22T05:58:11;15.35;;;9.00;;
1106;SDS011;540;49.448;8.612;2022-07-22T06:00:39;12.85;;;7.80;;
1106;SDS011;540;49.448;8.612;2022-07-22T06:03:07;10.05;;;6.93;;
1106;SDS011;540;49.448;8.612;2022-07-22T06:05:43;8.40;;;6.80;;
1106;SDS011;540;49.448;8.612;2022-07-22T06:08:11;10.10;;;6.40;;
1106;SDS011;540;49.448;8.612;2022-07-22T06:10:39;10.68;;;6.20;;
1106;SDS011;540;49.448;8.612;2022-07-22T06:13:06;11.13;;;6.15;;
1106;SDS011;540;49.448;8.612;2022-07-22T06:15:36;8.45;;;5.90;;
1106;SDS011;540;49.448;8.612;2022-07-22T06:18:04;7.32;;;5.25;;
1106;SDS011;540;49.448;8.612;2022-07-22T06:20:32;7.07;;;5.18;;
1106;SDS011;540;49.448;8.612;2022-07-22T06:22:59;10.57;;;5.43;;
1106;SDS011;540;49.448;8.612;2022-07-22T06:25:28;7.00;;;5.60;;
1106;SDS011;540;49.448;8.612;2022-07-22T06:28:07;6.72;;;4.43;;
1106;SDS011;540;49.448;8.612;2022-07-22T06:30:36;9.80;;;5.57;;
1106;SDS011;540;49.448;8.612;2022-07-22T06:33:05;6.80;;;4.93;;
1106;SDS011;540;49.448;8.612;2022-07-22T06:35:33;7.35;;;4.93;;
1106;SDS011;540;49.448;8.612;2022-07-22T06:38:01;6.38;;;4.63;;
1106;SDS011;540;49.448;8.612;2022-07-22T06:40:31;6.43;;;4.68;;
1106;SDS011;540;49.448;8.612;2022-07-22T06:43:00;6.55;;;4.68;;
1106;SDS011;540;49.448;8.612;2022-07-22T06:45:28;6.47;;;4.38;;
1106;SDS011;540;49.448;8.612;2022-07-22T06:47:57;5.78;;;4.60;;
1106;SDS011;540;49.448;8.612;2022-07-22T06:50:25;6.75;;;4.53;;
1106;SDS011;540;49.448;8.612;2022-07-22T06:52:54;6.03;;;4.60;;
1106;SDS011;540;49.448;8.612;2022-07-22T06:55:22;5.57;;;4.07;;
1106;SDS011;540;49.448;8.612;2022-07-22T06:57:50;5.43;;;4.13;;
1106;SDS011;540;49.448;8.612;2022-07-22T07:00:18;5.05;;;3.95;;
1106;SDS011;540;49.448;8.612;2022-07-22T07:02:46;5.18;;;3.97;;
1106;SDS011;540;49.448;8.612;2022-07-22T07:05:15;4.28;;;3.85;;
1106;SDS011;540;49.448;8.612;2022-07-22T07:07:45;5.90;;;4.32;;
1106;SDS011;540;49.448;8.612;2022-07-22T07:10:13;5.70;;;4.55;;
1106;SDS011;540;49.448;8.612;2022-07-22T07:12:42;5.72;;;4.47;;
1106;SDS011;540;49.448;8.612;2022-07-22T07:15:10;5.22;;;4.28;;
1106;SDS011;540;49.448;8.612;2022-07-22T07:17:54;5.38;;;4.70;;
1106;SDS011;540;49.448;8.612;2022-07-22T07:20:24;4.22;;;3.72;;
1106;SDS011;540;49.448;8.612;2022-07-22T07:22:52;5.93;;;4.03;;
1106;SDS011;540;49.448;8.612;2022-07-22T07:25:21;5.75;;;4.20;;
1106;SDS011;540;49.448;8.612;2022-07-22T07:27:51;6.05;;;3.75;;
1106;SDS011;540;49.448;8.612;2022-07-22T07:30:20;5.88;;;4.50;;
1106;SDS011;540;49.448;8.612;2022-07-22T07:32:48;8.65;;;3.90;;
1106;SDS011;540;49.448;8.612;2022-07-22T07:35:16;4.70;;;3.90;;
1106;SDS011;540;49.448;8.612;2022-07-22T07:37:45;4.78;;;4.22;;
1106;SDS011;540;49.448;8.612;2022-07-22T07:40:13;4.47;;;3.80;;
1106;SDS011;540;49.448;8.612;2022-07-22T07:42:43;4.05;;;3.67;;
1106;SDS011;540;49.448;8.612;2022-07-22T07:45:18;5.13;;;4.35;;
1106;SDS011;540;49.448;8.612;2022-07-22T07:47:46;6.25;;;3.60;;
1106;SDS011;540;49.448;8.612;2022-07-22T07:50:14;4.90;;;3.80;;
1106;SDS011;540;49.448;8.612;2022-07-22T07:52:44;5.53;;;3.65;;
1106;SDS011;540;49.448;8.612;2022-07-22T07:55:18;4.70;;;3.55;;
1106;SDS011;540;49.448;8.612;2022-07-22T07:57:46;6.47;;;3.95;;
1106;SDS011;540;49.448;8.612;2022-07-22T08:00:21;4.63;;;4.15;;
1106;SDS011;540;49.448;8.612;2022-07-22T08:02:53;5.10;;;3.92;;
1106;SDS011;540;49.448;8.612;2022-07-22T08:05:22;4.25;;;3.63;;
1106;SDS011;540;49.448;8.612;2022-07-22T08:07:51;6.30;;;4.80;;
1106;SDS011;540;49.448;8.612;2022-07-22T08:10:19;5.22;;;4.53;;
1106;SDS011;540;49.448;8.612;2022-07-22T08:13:08;6.68;;;3.67;;
1106;SDS011;540;49.448;8.612;2022-07-22T08:15:36;4.90;;;3.30;;
1106;SDS011;540;49.448;8.612;2022-07-22T08:18:04;4.18;;;3.30;;
1106;SDS011;540;49.448;8.612;2022-07-22T08:20:32;4.45;;;4.05;;
1106;SDS011;540;49.448;8.612;2022-07-22T08:23:01;8.15;;;5.00;;
1106;SDS011;540;49.448;8.612;2022-07-22T08:25:30;4.05;;;3.65;;
1106;SDS011;540;49.448;8.612;2022-07-22T08:27:58;5.85;;;3.97;;
1106;SDS011;540;49.448;8.612;2022-07-22T08:30:26;5.10;;;4.13;;
1106;SDS011;540;49.448;8.612;2022-07-22T08:32:54;4.47;;;4.07;;
1106;SDS011;540;49.448;8.612;2022-07-22T08:35:23;4.10;;;3.70;;
1106;SDS011;540;49.448;8.612;2022-07-22T08:37:51;5.00;;;3.88;;
1106;SDS011;540;49.448;8.612;2022-07-22T08:40:20;7.70;;;4.47;;
1106;SDS011;540;49.448;8.612;2022-07-22T08:42:48;5.65;;;3.30;;
1106;SDS011;540;49.448;8.612;2022-07-22T08:45:17;7.18;;;3.92;;
1106;SDS011;540;49.448;8.612;2022-07-22T08:47:46;6.85;;;5.70;;
1106;SDS011;540;49.448;8.612;2022-07-22T08:50:15;4.50;;;4.10;;
1106;SDS011;540;49.448;8.612;2022-07-22T08:52:43;6.30;;;4.13;;
1106;SDS011;540;49.448;8.612;2022-07-22T08:55:11;4.00;;;3.25;;
1106;SDS011;540;49.448;8.612;2022-07-22T08:57:45;6.15;;;3.85;;
1106;SDS011;540;49.448;8.612;2022-07-22T09:00:17;6.17;;;4.63;;
1106;SDS011;540;49.448;8.612;2022-07-22T09:02:46;4.13;;;3.72;;
1106;SDS011;540;49.448;8.612;2022-07-22T09:05:15;4.72;;;4.20;;
1106;SDS011;540;49.448;8.612;2022-07-22T09:08:04;4.82;;;4.10;;
1106;SDS011;540;49.448;8.612;2022-07-22T09:10:33;5.45;;;3.83;;
1106;SDS011;540;49.448;8.612;2022-07-22T09:13:04;5.57;;;3.70;;
1106;SDS011;540;49.448;8.612;2022-07-22T09:15:33;5.32;;;3.95;;
1106;SDS011;540;49.448;8.612;2022-07-22T09:18:03;4.60;;;3.90;;
1106;SDS011;540;49.448;8.612;2022-07-22T09:20:32;7.32;;;3.95;;
1106;SDS011;540;49.448;8.612;2022-07-22T09:23:01;5.72;;;4.18;;
1106;SDS011;540;49.448;8.612;2022-07-22T09:25:36;4.60;;;4.17;;
1106;SDS011;540;49.448;8.612;2022-07-22T09:28:13;6.10;;;4.05;;
1106;SDS011;540;49.448;8.612;2022-07-22T09:30:46;5.85;;;4.18;;
1106;SDS011;540;49.448;8.612;2022-07-22T09:33:18;8.38;;;4.65;;
1106;SDS011;540;49.448;8.612;2022-07-22T09:35:47;5.88;;;4.00;;
1106;SDS011;540;49.448;8.612;2022-07-22T09:38:17;4.57;;;4.15;;
1106;SDS011;540;49.448;8.612;2022-07-22T09:40:47;4.53;;;3.90;;
1106;SDS011;540;49.448;8.612;2022-07-22T09:43:18;6.22;;;4.70;;
1106;SDS011;540;49.448;8.612;2022-07-22T09:45:48;5.82;;;4.78;;
1106;SDS011;540;49.448;8.612;2022-07-22T09:48:20;5.20;;;4.63;;
1106;SDS011;540;49.448;8.612;2022-07-22T09:50:49;4.65;;;4.25;;
1106;SDS011;540;49.448;8.612;2022-07-22T09:53:18;6.10;;;4.07;;
1106;SDS011;540;49.448;8.612;2022-07-22T09:55:49;5.25;;;4.60;;
1106;SDS011;540;49.448;8.612;2022-07-22T09:58:18;5.50;;;4.47;;
1106;SDS011;540;49.448;8.612;2022-07-22T10:00:46;5.18;;;4.25;;
1106;SDS011;540;49.448;8.612;2022-07-22T10:03:16;7.55;;;4.80;;
1106;SDS011;540;49.448;8.612;2022-07-22T10:05:47;5.10;;;4.57;;
1106;SDS011;540;49.448;8.612;2022-07-22T10:08:15;5.05;;;4.43;;
1106;SDS011;540;49.448;8.612;2022-07-22T10:10:43;5.20;;;4.20;;
1106;SDS011;540;49.448;8.612;2022-07-22T10:13:11;4.55;;;4.05;;
1106;SDS011;540;49.448;8.612;2022-07-22T10:15:40;6.78;;;5.35;;
1106;SDS011;540;49.448;8.612;2022-07-22T10:18:14;5.05;;;4.32;;
1106;SDS011;540;49.448;8.612;2022-07-22T10:20:43;5.20;;;4.70;;
1106;SDS011;540;49.448;8.612;2022-07-22T10:23:12;7.00;;;5.03;;
1106;SDS011;540;49.448;8.612;2022-07-22T10:25:51;6.90;;;4.43;;
1106;SDS011;540;49.448;8.612;2022-07-22T10:28:21;6.10;;;5.03;;
1106;SDS011;540;49.448;8.612;2022-07-22T10:30:54;6.72;;;4.60;;
1106;SDS011;540;49.448;8.612;2022-07-22T10:33:44;5.65;;;4.43;;
1106;SDS011;540;49.448;8.612;2022-07-22T10:36:15;5.72;;;4.47;;
1106;SDS011;540;49.448;8.612;2022-07-22T10:39:01;5.15;;;4.60;;
1106;SDS011;540;49.448;8.612;2022-07-22T10:41:33;7.38;;;4.68;;
1106;SDS011;540;49.448;8.612;2022-07-22T10:44:02;8.32;;;4.97;;
1106;SDS011;540;49.448;8.612;2022-07-22T10:46:51;7.00;;;4.63;;
1106;SDS011;540;49.448;8.612;2022-07-22T10:49:21;5.28;;;4.80;;
1106;SDS011;540;49.448;8.612;2022-07-22T10:52:09;9.02;;;8.13;;
1106;SDS011;540;49.448;8.612;2022-07-22T10:57:46;9.30;;;8.32;;
1106;SDS011;540;49.448;8.612;2022-07-22T11:00:14;5.50;;;4.90;;
1106;SDS011;540;49.448;8.612;2022-07-22T11:02:44;6.45;;;5.40;;
1106;SDS011;540;49.448;8.612;2022-07-22T11:05:12;6.10;;;5.30;;
1106;SDS011;540;49.448;8.612;2022-07-22T11:07:41;7.07;;;4.53;;
1106;SDS011;540;49.448;8.612;2022-07-22T11:10:10;7.45;;;4.72;;
1106;SDS011;540;49.448;8.612;2022-07-22T11:12:45;5.13;;;4.65;;
1106;SDS011;540;49.448;8.612;2022-07-22T11:15:13;15.70;;;12.57;;
1106;SDS011;540;49.448;8.612;2022-07-22T11:17:43;6.78;;;5.35;;
1106;SDS011;540;49.448;8.612;2022-07-22T11:20:12;5.75;;;5.15;;
1106;SDS011;540;49.448;8.612;2022-07-22T11:22:40;6.28;;;4.80;;
1106;SDS011;540;49.448;8.612;2022-07-22T11:25:09;6.60;;;4.93;;
1106;SDS011;540;49.448;8.612;2022-07-22T11:27:38;5.82;;;4.50;;
1106;SDS011;540;49.448;8.612;2022-07-22T11:30:06;5.95;;;5.03;;
1106;SDS011;540;49.448;8.612;2022-07-22T11:32:40;5.82;;;4.75;;
1106;SDS011;540;49.448;8.612;2022-07-22T11:35:11;5.57;;;4.82;;
1106;SDS011;540;49.448;8.612;2022-07-22T11:37:40;16.17;;;13.57;;
1106;SDS011;540;49.448;8.612;2022-07-22T11:40:09;6.93;;;4.72;;
1106;SDS011;540;49.448;8.612;2022-07-22T11:42:38;6.40;;;4.90;;
1106;SDS011;540;49.448;8.612;2022-07-22T11:45:06;6.35;;;4.65;;
1106;SDS011;540;49.448;8.612;2022-07-22T11:47:34;7.28;;;5.40;;
1106;SDS011;540;49.448;8.612;2022-07-22T11:50:02;5.90;;;5.28;;
1106;SDS011;540;49.448;8.612;2022-07-22T11:52:32;6.25;;;4.65;;
1106;SDS011;540;49.448;8.612;2022-07-22T11:55:00;7.35;;;4.45;;
1106;SDS011;540;49.448;8.612;2022-07-22T11:57:28;8.73;;;4.90;;
1106;SDS011;540;49.448;8.612;2022-07-22T12:00:05;5.07;;;4.28;;
1106;SDS011;540;49.448;8.612;2022-07-22T12:02:34;8.05;;;5.05;;
1106;SDS011;540;49.448;8.612;2022-07-22T12:05:03;6.97;;;5.13;;
1106;SDS011;540;49.448;8.612;2022-07-22T12:07:53;6.60;;;4.55;;
1106;SDS011;540;49.448;8.612;2022-07-22T12:10:21;4.97;;;4.35;;
1106;SDS011;540;49.448;8.612;2022-07-22T12:12:49;5.13;;;4.43;;
1106;SDS011;540;49.448;8.612;2022-07-22T12:15:17;6.72;;;5.07;;
1106;SDS011;540;49.448;8.612;2022-07-22T12:18:18;7.18;;;6.45;;
1106;SDS011;540;49.448;8.612;2022-07-22T12:20:48;6.28;;;4.75;;
1106;SDS011;540;49.448;8.612;2022-07-22T12:23:21;6.15;;;4.60;;
1106;SDS011;540;49.448;8.612;2022-07-22T12:25:52;6.20;;;5.32;;
1106;SDS011;540;49.448;8.612;2022-07-22T12:28:21;4.95;;;4.45;;
1106;SDS011;540;49.448;8.612;2022-07-22T12:30:49;5.03;;;4.50;;
1106;SDS011;540;49.448;8.612;2022-07-22T12:33:19;5.03;;;4.55;;
1106;SDS011;540;49.448;8.612;2022-07-22T12:36:00;7.65;;;5.43;;
1106;SDS011;540;49.448;8.612;2022-07-22T12:38:32;5.35;;;4.85;;
1106;SDS011;540;49.448;8.612;2022-07-22T12:43:51;4.97;;;4.47;;
1106;SDS011;540;49.448;8.612;2022-07-22T12:46:19;6.05;;;4.65;;
1106;SDS011;540;49.448;8.612;2022-07-22T12:48:50;5.10;;;4.60;;
1106;SDS011;540;49.448;8.612;2022-07-22T12:51:19;9.10;;;4.78;;
1106;SDS011;540;49.448;8.612;2022-07-22T12:53:49;6.88;;;4.20;;
1106;SDS011;540;49.448;8.612;2022-07-22T12:56:18;5.50;;;4.82;;
1106;SDS011;540;49.448;8.612;2022-07-22T12:58:47;5.82;;;4.88;;
1106;SDS011;540;49.448;8.612;2022-07-22T13:01:15;5.88;;;5.00;;
1106;SDS011;540;49.448;8.612;2022-07-22T13:03:43;7.22;;;4.78;;
1106;SDS011;540;49.448;8.612;2022-07-22T13:06:11;6.22;;;4.75;;
1106;SDS011;540;49.448;8.612;2022-07-22T13:08:39;6.82;;;4.50;;
1106;SDS011;540;49.448;8.612;2022-07-22T13:11:13;7.15;;;5.15;;
1106;SDS011;540;49.448;8.612;2022-07-22T13:13:41;5.07;;;4.57;;
1106;SDS011;540;49.448;8.612;2022-07-22T13:16:11;7.70;;;6.07;;
1106;SDS011;540;49.448;8.612;2022-07-22T13:18:39;5.35;;;4.85;;
1106;SDS011;540;49.448;8.612;2022-07-22T13:21:07;7.38;;;4.90;;
1106;SDS011;540;49.448;8.612;2022-07-22T13:23:35;5.32;;;4.53;;
1106;SDS011;540;49.448;8.612;2022-07-22T13:26:03;5.45;;;4.57;;
1106;SDS011;540;49.448;8.612;2022-07-22T13:28:32;5.60;;;4.72;;
1106;SDS011;540;49.448;8.612;2022-07-22T13:31:00;5.03;;;4.60;;
1106;SDS011;540;49.448;8.612;2022-07-22T13:33:28;8.38;;;4.90;;
1106;SDS011;540;49.448;8.612;2022-07-22T13:35:56;5.97;;;4.90;;
1106;SDS011;540;49.448;8.612;2022-07-22T13:38:23;5.68;;;5.05;;
1106;SDS011;540;49.448;8.612;2022-07-22T13:40:51;5.72;;;4.45;;
1106;SDS011;540;49.448;8.612;2022-07-22T13:43:19;5.85;;;4.47;;
1106;SDS011;540;49.448;8.612;2022-07-22T13:45:50;7.00;;;4.72;;
1106;SDS011;540;49.448;8.612;2022-07-22T13:48:19;5.70;;;4.45;;
1106;SDS011;540;49.448;8.612;2022-07-22T13:50:47;4.78;;;4.28;;
1106;SDS011;540;49.448;8.612;2022-07-22T13:53:15;6.10;;;4.22;;
1106;SDS011;540;49.448;8.612;2022-07-22T13:55:43;4.57;;;4.18;;
1106;SDS011;540;49.448;8.612;2022-07-22T13:58:11;5.72;;;4.55;;
1106;SDS011;540;49.448;8.612;2022-07-22T14:00:39;5.50;;;4.32;;
1106;SDS011;540;49.448;8.612;2022-07-22T14:03:08;5.00;;;4.50;;
1106;SDS011;540;49.448;8.612;2022-07-22T14:05:36;5.57;;;4.78;;
1106;SDS011;540;49.448;8.612;2022-07-22T14:08:04;7.03;;;5.25;;
1106;SDS011;540;49.448;8.612;2022-07-22T14:10:32;5.93;;;5.07;;
1106;SDS011;540;49.448;8.612;2022-07-22T14:13:00;7.40;;;5.47;;
1106;SDS011;540;49.448;8.612;2022-07-22T14:15:28;9.48;;;4.70;;
1106;SDS011;540;49.448;8.612;2022-07-22T14:17:56;6.72;;;4.65;;
1106;SDS011;540;49.448;8.612;2022-07-22T14:20:25;6.97;;;5.28;;
1106;SDS011;540;49.448;8.612;2022-07-22T14:22:56;9.25;;;4.93;;
1106;SDS011;540;49.448;8.612;2022-07-22T14:25:23;6.53;;;5.25;;
1106;SDS011;540;49.448;8.612;2022-07-22T14:27:51;5.25;;;4.60;;
1106;SDS011;540;49.448;8.612;2022-07-22T14:30:39;6.32;;;4.70;;
1106;SDS011;540;49.448;8.612;2022-07-22T14:33:07;7.05;;;4.32;;
1106;SDS011;540;49.448;8.612;2022-07-22T14:35:36;8.93;;;4.82;;
1106;SDS011;540;49.448;8.612;2022-07-22T14:38:04;7.07;;;5.28;;
1106;SDS011;540;49.448;8.612;2022-07-22T14:40:32;7.63;;;5.22;;
1106;SDS011;540;49.448;8.612;2022-07-22T14:42:59;6.07;;;4.47;;
1106;SDS011;540;49.448;8.612;2022-07-22T14:45:47;7.00;;;4.70;;
1106;SDS011;540;49.448;8.612;2022-07-22T14:48:15;5.20;;;4.70;;
1106;SDS011;540;49.448;8.612;2022-07-22T14:50:44;7.60;;;5.20;;
1106;SDS011;540;49.448;8.612;2022-07-22T14:53:12;13.73;;;5.03;;
1106;SDS011;540;49.448;8.612;2022-07-22T14:55:43;6.40;;;4.95;;
1106;SDS011;540;49.448;8.612;2022-07-22T14:58:10;5.30;;;4.78;;
1106;SDS011;540;49.448;8.612;2022-07-22T15:00:38;5.60;;;5.05;;
1106;SDS011;540;49.448;8.612;2022-07-22T15:03:06;6.93;;;4.85;;
1106;SDS011;540;49.448;8.612;2022-07-22T15:05:34;7.45;;;4.72;;
1106;SDS011;540;49.448;8.612;2022-07-22T15:08:03;7.75;;;5.25;;
1106;SDS011;540;49.448;8.612;2022-07-22T15:10:32;6.03;;;5.28;;
1106;SDS011;540;49.448;8.612;2022-07-22T15:13:00;8.15;;;5.25;;
1106;SDS011;540;49.448;8.612;2022-07-22T15:15:27;5.45;;;4.65;;
1106;SDS011;540;49.448;8.612;2022-07-22T15:17:55;6.63;;;4.38;;
1106;SDS011;540;49.448;8.612;2022-07-22T15:20:24;8.55;;;5.15;;
1106;SDS011;540;49.448;8.612;2022-07-22T15:22:52;6.18;;;5.40;;
1106;SDS011;540;49.448;8.612;2022-07-22T15:25:21;7.88;;;5.32;;
1106;SDS011;540;49.448;8.612;2022-07-22T15:27:49;6.85;;;5.75;;
1106;SDS011;540;49.448;8.612;2022-07-22T15:30:38;6.35;;;5.35;;
1106;SDS011;540;49.448;8.612;2022-07-22T15:33:05;9.23;;;5.30;;
1106;SDS011;540;49.448;8.612;2022-07-22T15:35:37;5.93;;;5.03;;
1106;SDS011;540;49.448;8.612;2022-07-22T15:38:05;5.22;;;4.72;;
1106;SDS011;540;49.448;8.612;2022-07-22T15:40:34;5.72;;;5.05;;
1106;SDS011;540;49.448;8.612;2022-07-22T15:43:02;5.55;;;4.70;;
1106;SDS011;540;49.448;8.612;2022-07-22T15:45:30;5.78;;;5.18;;
1106;SDS011;540;49.448;8.612;2022-07-22T15:47:58;9.20;;;5.20;;